createdAt,value
2017-10-31T20:48:01.464Z,55.30
2017-10-31T20:50:30.249Z,58.50
2017-10-31T20:52:58.661Z,59.00
2017-10-31T20:55:27.526Z,59.60
2017-10-31T20:57:56.780Z,59.90
2017-10-31T21:00:25.178Z,60.10
2017-10-31T21:02:54.055Z,60.30
2017-10-31T21:05:22.389Z,60.30
2017-10-31T21:07:50.758Z,59.90
2017-10-31T21:10:19.138Z,59.30
2017-10-31T21:12:48.325Z,59.80
2017-10-31T21:15:16.700Z,59.80
2017-10-31T21:17:45.261Z,60.00
2017-10-31T21:20:13.760Z,60.10
2017-10-31T21:22:42.118Z,60.30
2017-10-31T21:25:10.478Z,60.40
2017-10-31T21:27:39.203Z,60.50
2017-10-31T21:30:07.833Z,60.40
2017-10-31T21:32:38.070Z,60.40
2017-10-31T21:35:06.963Z,60.40
2017-10-31T21:37:36.012Z,60.40
2017-10-31T21:40:04.828Z,60.50
2017-10-31T21:42:33.349Z,60.40
2017-10-31T21:45:01.758Z,60.50
2017-10-31T21:47:31.420Z,60.40
2017-10-31T21:50:01.232Z,60.40
2017-10-31T21:52:29.765Z,60.50
2017-10-31T21:54:58.545Z,60.50
2017-10-31T21:57:27.822Z,60.70
2017-10-31T21:59:56.486Z,60.30
2017-10-31T22:02:26.218Z,60.40
2017-10-31T22:04:54.902Z,60.40
2017-10-31T22:07:23.506Z,60.40
2017-10-31T22:09:52.075Z,60.40
2017-10-31T22:12:21.367Z,60.20
2017-10-31T22:14:50.863Z,60.30
2017-10-31T22:17:19.689Z,60.50
2017-10-31T22:19:49.599Z,60.20
2017-10-31T22:22:18.008Z,60.20
2017-10-31T22:24:46.334Z,60.30
2017-10-31T22:27:15.435Z,60.20
2017-10-31T22:29:43.856Z,60.20
2017-10-31T22:32:13.522Z,60.20
2017-10-31T22:34:41.980Z,60.20
2017-10-31T22:37:11.087Z,60.20
2017-10-31T22:39:40.023Z,60.20
2017-10-31T22:42:09.132Z,60.20
2017-10-31T22:44:38.498Z,60.20
2017-10-31T22:47:07.064Z,60.20
2017-10-31T22:49:35.905Z,60.10
2017-10-31T22:52:04.650Z,60.10
2017-10-31T22:54:33.003Z,59.90
2017-10-31T22:57:01.355Z,60.00
2017-10-31T22:59:29.685Z,60.00
2017-10-31T23:01:58.037Z,60.00
2017-10-31T23:04:26.357Z,60.10
2017-10-31T23:06:55.485Z,60.10
2017-10-31T23:09:24.661Z,60.00
2017-10-31T23:11:53.013Z,60.00
2017-10-31T23:14:26.198Z,60.00
2017-10-31T23:16:54.569Z,60.10
2017-10-31T23:19:22.944Z,60.00
2017-10-31T23:21:51.301Z,60.00
2017-10-31T23:24:20.423Z,59.50
2017-10-31T23:26:48.775Z,59.40
2017-10-31T23:29:17.075Z,58.90
2017-10-31T23:31:45.453Z,58.60
2017-10-31T23:34:13.814Z,58.60
2017-10-31T23:36:42.155Z,58.40
2017-10-31T23:39:10.461Z,58.90
2017-10-31T23:41:38.790Z,58.90
2017-10-31T23:44:07.828Z,57.90
2017-10-31T23:46:36.510Z,58.20
2017-10-31T23:49:04.858Z,58.30
2017-10-31T23:51:33.238Z,58.30
2017-10-31T23:54:01.595Z,58.30
2017-10-31T23:56:30.095Z,58.30
2017-10-31T23:58:58.390Z,58.30
